sensor_id;sensor_type;location;lat;lon;timestamp;noise_LAeq;noise_LA_min;noise_LA_max;noise_LA01;noise_LA95
71030;Laerm;63723;51.436;5.976;2024-01-10T00:00:02;53.66;51.65;57.07;;
71030;Laerm;63723;51.436;5.976;2024-01-10T00:00:13;53.98;52.07;56.75;;
71030;Laerm;63723;51.436;5.976;2024-01-10T00:00:23;54.14;51.97;57.54;;
71030;Laerm;63723;51.436;5.976;2024-01-10T00:00:33;53.72;51.53;56.10;;
71030;Laerm;63723;51.436;5.976;2024-01-10T00:00:43;53.51;51.15;56.25;;
71030;Laerm;63723;51.436;5.976;2024-01-10T00:00:54;53.75;51.29;56.30;;
71030;Laerm;63723;51.436;5.976;2024-01-10T00:01:05;53.80;51.49;57.01;;
71030;Laerm;63723;51.436;5.976;2024-01-10T00:01:15;53.79;51.53;56.70;;
71030;Laerm;63723;51.436;5.976;2024-01-10T00:01:26;53.52;51.42;56.04;;
71030;Laerm;63723;51.436;5.976;2024-01-10T00:01:37;53.60;51.56;56.94;;
71030;Laerm;63723;51.436;5.976;2024-01-10T00:01:47;54.24;51.34;57.43;;
71030;Laerm;63723;51.436;5.976;2024-01-10T00:01:57;53.77;51.02;57.51;;
71030;Laerm;63723;51.436;5.976;2024-01-10T00:02:07;54.26;51.78;56.80;;
71030;Laerm;63723;51.436;5.976;2024-01-10T00:02:18;53.87;51.25;56.55;;
71030;Laerm;63723;51.436;5.976;2024-01-10T00:02:28;54.27;51.46;57.48;;
71030;Laerm;63723;51.436;5.976;2024-01-10T00:02:38;54.00;51.84;56.66;;
71030;Laerm;63723;51.436;5.976;2024-01-10T00:02:48;53.96;51.43;57.48;;
71030;Laerm;63723;51.436;5.976;2024-01-10T00:02:58;53.77;51.84;57.45;;
71030;Laerm;63723;51.436;5.976;2024-01-10T00:03:09;53.88;51.78;56.35;;
71030;Laerm;63723;51.436;5.976;2024-01-10T00:03:19;54.37;52.27;56.71;;
71030;Laerm;63723;51.436;5.976;2024-01-10T00:03:29;54.07;51.18;56.84;;
71030;Laerm;63723;51.436;5.976;2024-01-10T00:03:39;53.00;51.82;56.10;;
71030;Laerm;63723;51.436;5.976;2024-01-10T00:03:50;53.13;51.41;58.02;;
71030;Laerm;63723;51.436;5.976;2024-01-10T00:04:00;52.93;50.85;56.12;;
71030;Laerm;63723;51.436;5.976;2024-01-10T00:04:10;53.10;51.56;55.80;;
71030;Laerm;63723;51.436;5.976;2024-01-10T00:04:20;53.09;51.78;56.16;;
71030;Laerm;63723;51.436;5.976;2024-01-10T00:04:31;53.16;51.51;55.54;;
71030;Laerm;63723;51.436;5.976;2024-01-10T00:04:41;53.10;51.53;55.98;;
71030;Laerm;63723;51.436;5.976;2024-01-10T00:04:51;53.11;51.25;57.39;;
71030;Laerm;63723;51.436;5.976;2024-01-10T00:05:02;53.07;51.17;55.42;;
71030;Laerm;63723;51.436;5.976;2024-01-10T00:05:13;53.04;51.07;56.41;;
71030;Laerm;63723;51.436;5.976;2024-01-10T00:05:23;53.02;51.34;55.63;;
71030;Laerm;63723;51.436;5.976;2024-01-10T00:05:34;52.65;50.86;53.83;;
71030;Laerm;63723;51.436;5.976;2024-01-10T00:05:44;52.49;50.72;55.29;;
71030;Laerm;63723;51.436;5.976;2024-01-10T00:05:54;52.41;50.61;54.71;;
71030;Laerm;63723;51.436;5.976;2024-01-10T00:06:05;52.41;50.65;55.44;;
71030;Laerm;63723;51.436;5.976;2024-01-10T00:06:15;52.32;50.72;55.84;;
71030;Laerm;63723;51.436;5.976;2024-01-10T00:06:26;52.74;50.51;55.62;;
71030;Laerm;63723;51.436;5.976;2024-01-10T00:06:36;53.21;51.55;55.25;;
71030;Laerm;63723;51.436;5.976;2024-01-10T00:06:46;53.12;51.17;56.92;;
71030;Laerm;63723;51.436;5.976;2024-01-10T00:06:56;53.22;50.98;55.18;;
71030;Laerm;63723;51.436;5.976;2024-01-10T00:07:07;52.88;51.20;55.98;;
71030;Laerm;63723;51.436;5.976;2024-01-10T00:07:17;52.99;51.13;55.22;;
71030;Laerm;63723;51.436;5.976;2024-01-10T00:07:27;52.53;50.87;55.54;;
71030;Laerm;63723;51.436;5.976;2024-01-10T00:07:38;52.66;50.56;55.64;;
71030;Laerm;63723;51.436;5.976;2024-01-10T00:07:48;52.77;50.96;55.60;;
71030;Laerm;63723;51.436;5.976;2024-01-10T00:07:58;52.69;51.16;54.73;;
71030;Laerm;63723;51.436;5.976;2024-01-10T00:08:08;52.74;50.81;56.75;;
71030;Laerm;63723;51.436;5.976;2024-01-10T00:08:18;52.80;50.93;55.45;;
71030;Laerm;63723;51.436;5.976;2024-01-10T00:08:29;52.59;50.84;55.40;;
71030;Laerm;63723;51.436;5.976;2024-01-10T00:08:39;52.58;50.89;55.59;;
71030;Laerm;63723;51.436;5.976;2024-01-10T00:08:49;52.64;50.60;55.80;;
71030;Laerm;63723;51.436;5.976;2024-01-10T00:08:59;52.74;51.24;55.24;;
71030;Laerm;63723;51.436;5.976;2024-01-10T00:09:10;52.57;51.00;55.66;;
71030;Laerm;63723;51.436;5.976;2024-01-10T00:09:20;52.62;51.13;54.84;;
71030;Laerm;63723;51.436;5.976;2024-01-10T00:09:30;52.50;50.63;55.67;;
71030;Laerm;63723;51.436;5.976;2024-01-10T00:09:40;52.70;51.31;55.93;;
71030;Laerm;63723;51.436;5.976;2024-01-10T00:09:51;52.86;51.43;55.44;;
71030;Laerm;63723;51.436;5.976;2024-01-10T00:10:01;52.72;50.84;55.85;;
71030;Laerm;63723;51.436;5.976;2024-01-10T00:10:12;52.67;51.06;55.52;;
71030;Laerm;63723;51.436;5.976;2024-01-10T00:10:22;52.31;50.62;55.22;;
71030;Laerm;63723;51.436;5.976;2024-01-10T00:10:32;52.68;51.05;55.11;;
71030;Laerm;63723;51.436;5.976;2024-01-10T00:10:43;52.74;51.30;55.34;;
71030;Laerm;63723;51.436;5.976;2024-01-10T00:10:53;52.50;50.76;55.20;;
71030;Laerm;63723;51.436;5.976;2024-01-10T00:11:06;52.66;51.04;55.40;;
71030;Laerm;63723;51.436;5.976;2024-01-10T00:11:16;52.70;51.31;55.23;;
71030;Laerm;63723;51.436;5.976;2024-01-10T00:11:26;52.81;51.42;56.07;;
71030;Laerm;63723;51.436;5.976;2024-01-10T00:11:37;52.77;50.85;55.61;;
71030;Laerm;63723;51.436;5.976;2024-01-10T00:11:47;53.11;51.78;55.53;;
71030;Laerm;63723;51.436;5.976;2024-01-10T00:11:58;52.97;50.90;54.98;;
71030;Laerm;63723;51.436;5.976;2024-01-10T00:12:08;52.96;51.23;55.28;;
71030;Laerm;63723;51.436;5.976;2024-01-10T00:12:18;53.80;52.16;55.50;;
71030;Laerm;63723;51.436;5.976;2024-01-10T00:12:28;53.77;52.25;55.36;;
71030;Laerm;63723;51.436;5.976;2024-01-10T00:12:43;53.91;51.89;55.95;;
71030;Laerm;63723;51.436;5.976;2024-01-10T00:12:54;53.84;52.20;55.91;;
71030;Laerm;63723;51.436;5.976;2024-01-10T00:13:04;53.71;51.91;56.22;;
71030;Laerm;63723;51.436;5.976;2024-01-10T00:13:15;53.05;51.34;55.35;;
71030;Laerm;63723;51.436;5.976;2024-01-10T00:13:25;52.47;51.06;55.34;;
71030;Laerm;63723;51.436;5.976;2024-01-10T00:13:36;52.71;50.96;55.24;;
71030;Laerm;63723;51.436;5.976;2024-01-10T00:13:46;52.76;51.06;56.40;;
71030;Laerm;63723;51.436;5.976;2024-01-10T00:13:56;52.66;51.15;55.62;;
71030;Laerm;63723;51.436;5.976;2024-01-10T00:14:09;52.75;51.43;56.21;;
71030;Laerm;63723;51.436;5.976;2024-01-10T00:14:20;52.95;51.54;56.45;;
71030;Laerm;63723;51.436;5.976;2024-01-10T00:14:30;53.00;51.56;55.63;;
71030;Laerm;63723;51.436;5.976;2024-01-10T00:14:41;52.91;51.55;54.60;;
71030;Laerm;63723;51.436;5.976;2024-01-10T00:14:51;53.33;51.57;55.22;;
71030;Laerm;63723;51.436;5.976;2024-01-10T00:15:04;53.14;51.78;55.46;;
71030;Laerm;63723;51.436;5.976;2024-01-10T00:15:14;53.61;51.94;56.26;;
71030;Laerm;63723;51.436;5.976;2024-01-10T00:15:25;53.64;51.63;57.80;;
71030;Laerm;63723;51.436;5.976;2024-01-10T00:15:35;53.13;51.46;57.36;;
71030;Laerm;63723;51.436;5.976;2024-01-10T00:15:45;52.99;51.22;56.13;;
71030;Laerm;63723;51.436;5.976;2024-01-10T00:15:56;53.05;51.69;56.02;;
71030;Laerm;63723;51.436;5.976;2024-01-10T00:16:09;52.96;51.43;55.07;;
71030;Laerm;63723;51.436;5.976;2024-01-10T00:16:21;53.39;51.60;55.69;;
71030;Laerm;63723;51.436;5.976;2024-01-10T00:16:31;52.83;51.29;55.97;;
71030;Laerm;63723;51.436;5.976;2024-01-10T00:16:42;52.71;51.00;55.69;;
71030;Laerm;63723;51.436;5.976;2024-01-10T00:16:52;52.52;50.78;53.82;;
71030;Laerm;63723;51.436;5.976;2024-01-10T00:17:02;52.42;51.10;53.82;;
71030;Laerm;63723;51.436;5.976;2024-01-10T00:17:12;52.59;51.40;55.52;;
71030;Laerm;63723;51.436;5.976;2024-01-10T00:17:23;52.69;51.40;55.09;;
71030;Laerm;63723;51.436;5.976;2024-01-10T00:17:33;53.00;51.21;55.11;;
71030;Laerm;63723;51.436;5.976;2024-01-10T00:17:43;52.79;51.01;55.26;;
71030;Laerm;63723;51.436;5.976;2024-01-10T00:17:54;53.93;50.84;56.54;;
71030;Laerm;63723;51.436;5.976;2024-01-10T00:18:04;53.09;51.64;55.98;;
71030;Laerm;63723;51.436;5.976;2024-01-10T00:18:14;54.36;52.36;56.77;;
71030;Laerm;63723;51.436;5.976;2024-01-10T00:18:25;54.54;52.61;56.73;;
71030;Laerm;63723;51.436;5.976;2024-01-10T00:18:35;53.75;51.54;56.15;;
71030;Laerm;63723;51.436;5.976;2024-01-10T00:18:45;52.77;51.18;56.19;;
71030;Laerm;63723;51.436;5.976;2024-01-10T00:18:55;52.56;51.10;55.13;;
71030;Laerm;63723;51.436;5.976;2024-01-10T00:19:05;54.08;51.59;56.81;;
71030;Laerm;63723;51.436;5.976;2024-01-10T00:19:16;53.15;51.65;55.03;;
71030;Laerm;63723;51.436;5.976;2024-01-10T00:19:26;53.13;51.55;55.36;;
71030;Laerm;63723;51.436;5.976;2024-01-10T00:19:37;53.33;51.70;55.21;;
71030;Laerm;63723;51.436;5.976;2024-01-10T00:19:47;53.21;50.82;54.94;;
71030;Laerm;63723;51.436;5.976;2024-01-10T00:19:57;52.86;51.10;54.90;;
71030;Laerm;63723;51.436;5.976;2024-01-10T00:20:08;52.98;51.16;55.18;;
71030;Laerm;63723;51.436;5.976;2024-01-10T00:20:18;52.92;51.48;54.93;;
71030;Laerm;63723;51.436;5.976;2024-01-10T00:20:28;52.93;51.67;55.53;;
71030;Laerm;63723;51.436;5.976;2024-01-10T00:20:38;52.91;51.62;54.59;;
71030;Laerm;63723;51.436;5.976;2024-01-10T00:20:49;52.82;51.18;55.60;;
71030;Laerm;63723;51.436;5.976;2024-01-10T00:20:59;53.26;51.15;55.64;;
71030;Laerm;63723;51.436;5.976;2024-01-10T00:21:10;54.48;52.60;57.17;;
71030;Laerm;63723;51.436;5.976;2024-01-10T00:21:20;54.17;51.73;56.81;;
71030;Laerm;63723;51.436;5.976;2024-01-10T00:21:31;53.77;52.13;55.77;;
71030;Laerm;63723;51.436;5.976;2024-01-10T00:21:41;54.37;52.34;56.51;;
71030;Laerm;63723;51.436;5.976;2024-01-10T00:21:51;54.48;52.69;56.00;;
71030;Laerm;63723;51.436;5.976;2024-01-10T00:22:02;54.04;51.95;56.47;;
71030;Laerm;63723;51.436;5.976;2024-01-10T00:22:12;52.99;50.99;57.45;;
71030;Laerm;63723;51.436;5.976;2024-01-10T00:22:22;53.31;51.38;55.41;;
71030;Laerm;63723;51.436;5.976;2024-01-10T00:22:33;53.72;51.37;56.95;;
71030;Laerm;63723;51.436;5.976;2024-01-10T00:22:43;53.06;51.15;56.79;;
71030;Laerm;63723;51.436;5.976;2024-01-10T00:22:54;52.76;51.62;55.62;;
71030;Laerm;63723;51.436;5.976;2024-01-10T00:23:05;52.91;51.42;55.75;;
71030;Laerm;63723;51.436;5.976;2024-01-10T00:23:16;52.67;50.98;55.88;;
71030;Laerm;63723;51.436;5.976;2024-01-10T00:23:26;52.93;51.46;56.65;;
71030;Laerm;63723;51.436;5.976;2024-01-10T00:23:36;53.07;51.94;55.98;;
71030;Laerm;63723;51.436;5.976;2024-01-10T00:23:47;52.83;51.59;55.98;;
71030;Laerm;63723;51.436;5.976;2024-01-10T00:23:57;53.44;51.36;59.38;;
71030;Laerm;63723;51.436;5.976;2024-01-10T00:24:07;52.53;51.02;55.39;;
71030;Laerm;63723;51.436;5.976;2024-01-10T00:24:17;52.80;51.58;55.20;;
71030;Laerm;63723;51.436;5.976;2024-01-10T00:24:28;52.69;51.30;55.31;;
71030;Laerm;63723;51.436;5.976;2024-01-10T00:24:38;52.62;51.09;55.46;;
71030;Laerm;63723;51.436;5.976;2024-01-10T00:24:48;53.23;51.08;55.68;;
71030;Laerm;63723;51.436;5.976;2024-01-10T00:24:58;53.00;51.17;56.07;;
71030;Laerm;63723;51.436;5.976;2024-01-10T00:25:09;53.54;52.13;55.77;;
71030;Laerm;63723;51.436;5.976;2024-01-10T00:25:19;53.25;51.58;56.76;;
71030;Laerm;63723;51.436;5.976;2024-01-10T00:25:29;54.26;52.33;56.85;;
71030;Laerm;63723;51.436;5.976;2024-01-10T00:25:39;54.33;51.55;56.73;;
71030;Laerm;63723;51.436;5.976;2024-01-10T00:25:50;52.94;50.24;56.28;;
71030;Laerm;63723;51.436;5.976;2024-01-10T00:26:00;52.87;51.61;55.08;;
71030;Laerm;63723;51.436;5.976;2024-01-10T00:26:11;52.93;51.40;55.25;;
71030;Laerm;63723;51.436;5.976;2024-01-10T00:26:21;52.89;51.45;55.13;;
71030;Laerm;63723;51.436;5.976;2024-01-10T00:26:31;52.73;51.04;55.22;;
71030;Laerm;63723;51.436;5.976;2024-01-10T00:26:41;53.96;51.51;56.85;;
71030;Laerm;63723;51.436;5.976;2024-01-10T00:26:52;55.13;53.30;57.40;;
71030;Laerm;63723;51.436;5.976;2024-01-10T00:27:02;54.22;51.79;56.71;;
71030;Laerm;63723;51.436;5.976;2024-01-10T00:27:12;53.58;51.79;55.31;;
71030;Laerm;63723;51.436;5.976;2024-01-10T00:27:22;54.53;51.89;58.17;;
71030;Laerm;63723;51.436;5.976;2024-01-10T00:27:33;56.32;53.46;58.63;;
71030;Laerm;63723;51.436;5.976;2024-01-10T00:27:46;54.84;52.62;59.17;;
71030;Laerm;63723;51.436;5.976;2024-01-10T00:27:57;54.79;53.15;59.13;;
71030;Laerm;63723;51.436;5.976;2024-01-10T00:28:07;55.24;53.14;57.64;;
71030;Laerm;63723;51.436;5.976;2024-01-10T00:28:17;56.21;54.24;57.80;;
71030;Laerm;63723;51.436;5.976;2024-01-10T00:28:28;56.10;53.24;57.73;;
71030;Laerm;63723;51.436;5.976;2024-01-10T00:28:38;53.93;51.69;57.55;;
71030;Laerm;63723;51.436;5.976;2024-01-10T00:28:48;55.47;53.59;58.03;;
71030;Laerm;63723;51.436;5.976;2024-01-10T00:28:58;55.07;52.24;58.12;;
71030;Laerm;63723;51.436;5.976;2024-01-10T00:29:08;55.99;53.59;57.59;;
71030;Laerm;63723;51.436;5.976;2024-01-10T00:29:19;54.59;51.98;56.71;;
71030;Laerm;63723;51.436;5.976;2024-01-10T00:29:29;54.83;52.54;56.59;;
71030;Laerm;63723;51.436;5.976;2024-01-10T00:29:39;54.45;51.74;60.56;;
71030;Laerm;63723;51.436;5.976;2024-01-10T00:29:49;53.45;51.60;55.33;;
71030;Laerm;63723;51.436;5.976;2024-01-10T00:30:01;53.55;51.90;55.21;;
71030;Laerm;63723;51.436;5.976;2024-01-10T00:30:12;53.19;51.68;55.14;;
71030;Laerm;63723;51.436;5.976;2024-01-10T00:30:22;52.90;51.70;54.51;;
71030;Laerm;63723;51.436;5.976;2024-01-10T00:30:33;52.85;51.34;54.46;;
71030;Laerm;63723;51.436;5.976;2024-01-10T00:30:46;52.74;51.12;54.50;;
71030;Laerm;63723;51.436;5.976;2024-01-10T00:30:58;52.81;51.22;54.50;;
71030;Laerm;63723;51.436;5.976;2024-01-10T00:31:08;53.62;51.75;55.62;;
71030;Laerm;63723;51.436;5.976;2024-01-10T00:31:18;53.22;51.48;54.59;;
71030;Laerm;63723;51.436;5.976;2024-01-10T00:31:28;52.81;50.93;54.73;;
71030;Laerm;63723;51.436;5.976;2024-01-10T00:31:39;53.06;51.44;54.50;;
71030;Laerm;63723;51.436;5.976;2024-01-10T00:31:49;52.62;51.30;54.44;;
71030;Laerm;63723;51.436;5.976;2024-01-10T00:32:01;52.95;50.97;55.03;;
71030;Laerm;63723;51.436;5.976;2024-01-10T00:32:11;52.87;51.26;54.51;;
71030;Laerm;63723;51.436;5.976;2024-01-10T00:32:22;52.74;50.73;54.12;;
71030;Laerm;63723;51.436;5.976;2024-01-10T00:32:32;53.22;51.27;54.76;;
71030;Laerm;63723;51.436;5.976;2024-01-10T00:32:42;52.75;50.96;54.98;;
71030;Laerm;63723;51.436;5.976;2024-01-10T00:32:52;52.56;50.98;54.37;;
71030;Laerm;63723;51.436;5.976;2024-01-10T00:33:02;52.51;50.85;54.08;;
71030;Laerm;63723;51.436;5.976;2024-01-10T00:33:13;52.62;50.91;54.28;;
71030;Laerm;63723;51.436;5.976;2024-01-10T00:33:24;53.01;51.50;54.59;;
71030;Laerm;63723;51.436;5.976;2024-01-10T00:33:34;52.71;51.40;54.28;;
71030;Laerm;63723;51.436;5.976;2024-01-10T00:33:44;52.88;51.19;54.68;;
71030;Laerm;63723;51.436;5.976;2024-01-10T00:33:54;52.81;51.11;54.41;;
71030;Laerm;63723;51.436;5.976;2024-01-10T00:34:05;52.84;50.87;54.51;;
71030;Laerm;63723;51.436;5.976;2024-01-10T00:34:15;52.36;50.66;54.05;;
71030;Laerm;63723;51.436;5.976;2024-01-10T00:34:25;52.49;50.67;54.23;;
71030;Laerm;63723;51.436;5.976;2024-01-10T00:34:36;52.74;51.23;55.12;;
71030;Laerm;63723;51.436;5.976;2024-01-10T00:34:47;52.52;50.79;54.43;;
71030;Laerm;63723;51.436;5.976;2024-01-10T00:34:57;52.64;50.31;54.73;;
71030;Laerm;63723;51.436;5.976;2024-01-10T00:35:07;52.38;50.88;54.94;;
71030;Laerm;63723;51.436;5.976;2024-01-10T00:35:17;52.51;50.81;54.41;;
71030;Laerm;63723;51.436;5.976;2024-01-10T00:35:28;52.82;51.27;54.76;;
71030;Laerm;63723;51.436;5.976;2024-01-10T00:35:38;52.78;51.59;54.61;;
71030;Laerm;63723;51.436;5.976;2024-01-10T00:35:48;52.86;51.54;54.38;;
71030;Laerm;63723;51.436;5.976;2024-01-10T00:35:58;52.78;51.11;55.50;;
71030;Laerm;63723;51.436;5.976;2024-01-10T00:36:09;52.90;51.60;55.14;;
71030;Laerm;63723;51.436;5.976;2024-01-10T00:36:19;52.58;51.08;54.21;;
71030;Laerm;63723;51.436;5.976;2024-01-10T00:36:29;52.91;51.23;55.42;;
71030;Laerm;63723;51.436;5.976;2024-01-10T00:36:39;53.00;51.46;54.62;;
71030;Laerm;63723;51.436;5.976;2024-01-10T00:36:49;52.86;51.09;54.09;;
71030;Laerm;63723;51.436;5.976;2024-01-10T00:37:00;52.64;50.89;54.97;;
71030;Laerm;63723;51.436;5.976;2024-01-10T00:37:10;52.91;51.44;55.47;;
71030;Laerm;63723;51.436;5.976;2024-01-10T00:37:20;52.74;51.05;55.26;;
71030;Laerm;63723;51.436;5.976;2024-01-10T00:37:30;52.58;50.97;54.54;;
71030;Laerm;63723;51.436;5.976;2024-01-10T00:37:41;52.43;51.23;55.00;;
71030;Laerm;63723;51.436;5.976;2024-01-10T00:37:51;52.39;50.76;54.73;;
71030;Laerm;63723;51.436;5.976;2024-01-10T00:38:01;52.44;50.89;55.36;;
71030;Laerm;63723;51.436;5.976;2024-01-10T00:38:13;52.33;50.31;53.97;;
71030;Laerm;63723;51.436;5.976;2024-01-10T00:38:23;52.79;51.02;55.31;;
71030;Laerm;63723;51.436;5.976;2024-01-10T00:38:33;52.39;50.85;54.29;;
71030;Laerm;63723;51.436;5.976;2024-01-10T00:38:44;52.32;50.38;54.65;;
71030;Laerm;63723;51.436;5.976;2024-01-10T00:38:54;52.37;50.61;53.81;;
71030;Laerm;63723;51.436;5.976;2024-01-10T00:39:05;52.39;50.94;54.01;;
71030;Laerm;63723;51.436;5.976;2024-01-10T00:39:15;52.52;51.14;54.60;;
71030;Laerm;63723;51.436;5.976;2024-01-10T00:39:25;52.32;50.70;54.69;;
71030;Laerm;63723;51.436;5.976;2024-01-10T00:39:36;52.32;50.73;54.20;;
71030;Laerm;63723;51.436;5.976;2024-01-10T00:39:46;52.50;50.84;54.86;;
71030;Laerm;63723;51.436;5.976;2024-01-10T00:39:56;53.12;51.37;55.52;;
71030;Laerm;63723;51.436;5.976;2024-01-10T00:40:07;52.85;51.08;54.41;;
71030;Laerm;63723;51.436;5.976;2024-01-10T00:40:17;53.03;51.30;55.13;;
71030;Laerm;63723;51.436;5.976;2024-01-10T00:40:28;52.34;50.85;54.66;;
71030;Laerm;63723;51.436;5.976;2024-01-10T00:40:38;52.40;50.96;54.94;;
71030;Laerm;63723;51.436;5.976;2024-01-10T00:40:48;52.61;51.12;55.13;;
71030;Laerm;63723;51.436;5.976;2024-01-10T00:40:59;52.67;51.11;54.85;;
71030;Laerm;63723;51.436;5.976;2024-01-10T00:41:09;52.50;50.70;54.52;;
71030;Laerm;63723;51.436;5.976;2024-01-10T00:41:19;52.51;51.37;55.35;;
71030;Laerm;63723;51.436;5.976;2024-01-10T00:41:29;52.43;50.71;54.08;;
71030;Laerm;63723;51.436;5.976;2024-01-10T00:41:40;52.33;50.64;54.99;;
71030;Laerm;63723;51.436;5.976;2024-01-10T00:41:50;52.81;51.49;55.29;;
71030;Laerm;63723;51.436;5.976;2024-01-10T00:42:01;52.64;50.56;55.37;;
71030;Laerm;63723;51.436;5.976;2024-01-10T00:42:11;52.64;50.85;54.84;;
71030;Laerm;63723;51.436;5.976;2024-01-10T00:42:21;52.77;51.16;55.11;;
71030;Laerm;63723;51.436;5.976;2024-01-10T00:42:31;52.05;50.49;53.59;;
71030;Laerm;63723;51.436;5.976;2024-01-10T00:42:42;51.64;50.26;53.32;;
71030;Laerm;63723;51.436;5.976;2024-01-10T00:42:52;51.27;49.57;54.19;;
71030;Laerm;63723;51.436;5.976;2024-01-10T00:43:02;51.58;49.86;54.61;;
71030;Laerm;63723;51.436;5.976;2024-01-10T00:43:14;51.78;50.11;54.22;;
71030;Laerm;63723;51.436;5.976;2024-01-10T00:43:24;51.23;49.64;54.05;;
71030;Laerm;63723;51.436;5.976;2024-01-10T00:43:34;51.46;49.50;54.75;;
71030;Laerm;63723;51.436;5.976;2024-01-10T00:43:45;51.55;49.88;54.03;;
71030;Laerm;63723;51.436;5.976;2024-01-10T00:43:55;51.11;49.58;54.09;;
71030;Laerm;63723;51.436;5.976;2024-01-10T00:44:05;51.39;49.60;53.60;;
71030;Laerm;63723;51.436;5.976;2024-01-10T00:44:15;51.32;49.33;53.37;;
71030;Laerm;63723;51.436;5.976;2024-01-10T00:44:26;51.37;50.13;53.36;;
71030;Laerm;63723;51.436;5.976;2024-01-10T00:44:36;51.52;50.07;54.09;;
71030;Laerm;63723;51.436;5.976;2024-01-10T00:44:46;51.73;49.92;54.63;;
71030;Laerm;63723;51.436;5.976;2024-01-10T00:44:56;51.99;50.14;53.73;;
71030;Laerm;63723;51.436;5.976;2024-01-10T00:45:07;51.39;49.56;53.73;;
71030;Laerm;63723;51.436;5.976;2024-01-10T00:45:17;51.97;50.18;54.14;;
71030;Laerm;63723;51.436;5.976;2024-01-10T00:45:27;51.10;49.36;53.95;;
71030;Laerm;63723;51.436;5.976;2024-01-10T00:45:37;51.49;50.14;53.29;;
71030;Laerm;63723;51.436;5.976;2024-01-10T00:45:48;52.08;50.31;55.14;;
71030;Laerm;63723;51.436;5.976;2024-01-10T00:45:58;52.05;49.86;54.49;;
71030;Laerm;63723;51.436;5.976;2024-01-10T00:46:08;51.94;49.73;54.58;;
71030;Laerm;63723;51.436;5.976;2024-01-10T00:46:18;51.58;49.52;54.25;;
71030;Laerm;63723;51.436;5.976;2024-01-10T00:46:29;51.96;50.57;54.41;;
71030;Laerm;63723;51.436;5.976;2024-01-10T00:46:39;52.02;50.27;54.16;;
71030;Laerm;63723;51.436;5.976;2024-01-10T00:46:49;51.99;50.44;54.83;;
71030;Laerm;63723;51.436;5.976;2024-01-10T00:46:59;51.99;49.80;54.24;;
71030;Laerm;63723;51.436;5.976;2024-01-10T00:47:10;52.04;50.84;54.52;;
71030;Laerm;63723;51.436;5.976;2024-01-10T00:47:21;52.28;50.92;54.24;;
71030;Laerm;63723;51.436;5.976;2024-01-10T00:47:31;52.12;50.63;54.22;;
71030;Laerm;63723;51.436;5.976;2024-01-10T00:47:41;51.92;49.99;54.01;;
71030;Laerm;63723;51.436;5.976;2024-01-10T00:47:51;51.55;49.77;53.48;;
71030;Laerm;63723;51.436;5.976;2024-01-10T00:48:02;51.96;49.92;54.93;;
71030;Laerm;63723;51.436;5.976;2024-01-10T00:48:12;51.96;49.84;54.24;;
71030;Laerm;63723;51.436;5.976;2024-01-10T00:48:22;51.93;50.06;54.17;;
71030;Laerm;63723;51.436;5.976;2024-01-10T00:48:32;52.07;50.43;54.94;;
71030;Laerm;63723;51.436;5.976;2024-01-10T00:48:44;51.95;50.48;54.09;;
71030;Laerm;63723;51.436;5.976;2024-01-10T00:48:54;52.01;50.36;54.33;;
71030;Laerm;63723;51.436;5.976;2024-01-10T00:49:04;52.05;50.27;55.00;;
71030;Laerm;63723;51.436;5.976;2024-01-10T00:49:14;52.05;50.28;54.64;;
71030;Laerm;63723;51.436;5.976;2024-01-10T00:49:25;52.09;50.62;54.95;;
71030;Laerm;63723;51.436;5.976;2024-01-10T00:49:35;51.70;49.73;54.12;;
71030;Laerm;63723;51.436;5.976;2024-01-10T00:49:46;51.73;49.94;54.19;;
71030;Laerm;63723;51.436;5.976;2024-01-10T00:49:56;52.96;49.94;54.98;;
71030;Laerm;63723;51.436;5.976;2024-01-10T00:50:06;52.60;50.17;55.47;;
71030;Laerm;63723;51.436;5.976;2024-01-10T00:50:17;53.89;52.08;55.59;;
71030;Laerm;63723;51.436;5.976;2024-01-10T00:50:27;52.21;49.71;55.24;;
71030;Laerm;63723;51.436;5.976;2024-01-10T00:50:37;51.47;49.49;53.39;;
71030;Laerm;63723;51.436;5.976;2024-01-10T00:50:48;51.58;49.78;53.54;;
71030;Laerm;63723;51.436;5.976;2024-01-10T00:50:58;51.47;49.44;54.05;;
71030;Laerm;63723;51.436;5.976;2024-01-10T00:51:08;51.47;49.19;53.53;;
71030;Laerm;63723;51.436;5.976;2024-01-10T00:51:19;52.89;49.61;55.05;;
71030;Laerm;63723;51.436;5.976;2024-01-10T00:51:29;51.60;49.49;54.30;;
71030;Laerm;63723;51.436;5.976;2024-01-10T00:51:40;53.06;51.12;54.56;;
71030;Laerm;63723;51.436;5.976;2024-01-10T00:51:50;52.34;49.32;54.52;;
71030;Laerm;63723;51.436;5.976;2024-01-10T00:52:00;51.37;49.47;53.16;;
71030;Laerm;63723;51.436;5.976;2024-01-10T00:52:11;51.21;49.43;53.35;;
71030;Laerm;63723;51.436;5.976;2024-01-10T00:52:21;52.12;49.96;54.58;;
71030;Laerm;63723;51.436;5.976;2024-01-10T00:52:31;51.73;49.93;53.72;;
71030;Laerm;63723;51.436;5.976;2024-01-10T00:52:42;51.64;49.87;53.42;;
71030;Laerm;63723;51.436;5.976;2024-01-10T00:52:52;51.79;49.71;53.62;;
71030;Laerm;63723;51.436;5.976;2024-01-10T00:53:02;52.09;49.84;54.49;;
71030;Laerm;63723;51.436;5.976;2024-01-10T00:53:12;51.66;49.87;54.02;;
71030;Laerm;63723;51.436;5.976;2024-01-10T00:53:23;51.67;49.73;53.64;;
71030;Laerm;63723;51.436;5.976;2024-01-10T00:53:36;51.50;49.74;53.94;;
71030;Laerm;63723;51.436;5.976;2024-01-10T00:53:48;51.42;49.50;54.16;;
71030;Laerm;63723;51.436;5.976;2024-01-10T00:53:58;51.96;50.12;55.05;;
71030;Laerm;63723;51.436;5.976;2024-01-10T00:54:08;51.92;49.54;55.65;;
71030;Laerm;63723;51.436;5.976;2024-01-10T00:54:19;51.83;49.40;55.30;;
71030;Laerm;63723;51.436;5.976;2024-01-10T00:54:29;51.70;49.85;54.13;;
71030;Laerm;63723;51.436;5.976;2024-01-10T00:54:39;51.93;49.56;55.55;;
71030;Laerm;63723;51.436;5.976;2024-01-10T00:54:49;52.09;49.87;55.12;;
71030;Laerm;63723;51.436;5.976;2024-01-10T00:55:00;51.92;50.07;54.27;;
71030;Laerm;63723;51.436;5.976;2024-01-10T00:55:10;51.92;49.90;54.91;;
71030;Laerm;63723;51.436;5.976;2024-01-10T00:55:20;52.08;50.27;55.68;;
71030;Laerm;63723;51.436;5.976;2024-01-10T00:55:30;52.86;50.06;55.61;;
71030;Laerm;63723;51.436;5.976;2024-01-10T00:55:41;53.34;51.22;55.47;;
71030;Laerm;63723;51.436;5.976;2024-01-10T00:55:51;52.16;50.25;55.97;;
71030;Laerm;63723;51.436;5.976;2024-01-10T00:56:01;51.63;49.82;54.46;;
71030;Laerm;63723;51.436;5.976;2024-01-10T00:56:11;51.80;50.34;54.63;;
71030;Laerm;63723;51.436;5.976;2024-01-10T00:56:22;51.81;50.07;55.51;;
71030;Laerm;63723;51.436;5.976;2024-01-10T00:56:32;51.72;50.12;56.05;;
71030;Laerm;63723;51.436;5.976;2024-01-10T00:56:42;52.24;50.26;55.44;;
71030;Laerm;63723;51.436;5.976;2024-01-10T00:56:53;52.36;50.41;57.67;;
71030;Laerm;63723;51.436;5.976;2024-01-10T00:57:03;51.85;49.80;54.79;;
71030;Laerm;63723;51.436;5.976;2024-01-10T00:57:13;52.03;49.88;54.45;;
71030;Laerm;63723;51.436;5.976;2024-01-10T00:57:24;51.95;49.45;53.97;;
71030;Laerm;63723;51.436;5.976;2024-01-10T00:57:34;51.83;49.47;53.92;;
71030;Laerm;63723;51.436;5.976;2024-01-10T00:57:45;52.04;50.20;54.60;;
71030;Laerm;63723;51.436;5.976;2024-01-10T00:57:55;52.23;50.01;54.98;;
71030;Laerm;63723;51.436;5.976;2024-01-10T00:58:05;52.52;49.95;55.12;;
71030;Laerm;63723;51.436;5.976;2024-01-10T00:58:16;52.59;49.82;54.97;;